Terminal Aerodrome Forecast
Issued by NWS Hastings, NE

Home | Current Version | Previous Version | Text Only | Print | Product List | Glossary On
Versions: 1 2 3 4 5 6 7 8 9 10 11 12 13 14 15 16 17 18 19
000
FTUS45 KGID 281848 AAA
TAFEAR
TAF AMD
KEAR 281848Z 2819/2918 36014G18KT P6SM SCT025 BKN035
     FM282100 34012KT P6SM SCT035 BKN050
     FM290200 35008KT P6SM SKC
      AMD LTD TO CLD VIS AND WIND=

USA.gov is the U.S. government's official web portal to all federal, state and local government web resources and services.